Time,TemperatureF,DewpointF,PressureIn,WindDirection,WindDirectionDegrees,WindSpeedMPH,WindSpeedGustMPH,Humidity,HourlyPrecipIn,Conditions,Clouds,dailyrainin,SoftwareType,DateUTC
2013-01-30 00:00:00,57.2,56.4,30.03,SW,225,0.0,3.0,97,0.16,,OVC,0.01,VWS V14.01,2013-01-30 05:00:00,
2013-01-30 01:00:00,57.1,56.3,30.00,South,180,0.0,4.0,97,0.01,,OVC,0.01,VWS V14.01,2013-01-30 06:00:00,
2013-01-30 02:00:00,57.1,56.5,29.97,SSW,202,1.0,9.0,98,0.00,,OVC,0.01,VWS V14.01,2013-01-30 07:00:00,
2013-01-30 03:00:00,57.2,56.6,29.94,SSW,202,1.0,6.0,98,0.00,,OVC,0.01,VWS V14.01,2013-01-30 08:00:00,
2013-01-30 04:00:00,57.3,56.7,29.90,SW,225,2.0,9.0,98,0.00,,OVC,0.01,VWS V14.01,2013-01-30 09:00:00,
2013-01-30 05:00:00,57.2,56.6,29.88,SW,225,1.0,9.0,98,0.01,,OVC,0.02,VWS V14.01,2013-01-30 10:00:00,
2013-01-30 06:00:00,57.4,56.8,29.87,SSW,202,2.0,13.0,98,0.02,,OVC,0.03,VWS V14.01,2013-01-30 11:00:00,
2013-01-30 07:00:00,57.3,56.7,29.84,SSW,202,2.0,11.0,98,0.01,,OVC,0.03,VWS V14.01,2013-01-30 12:00:00,
2013-01-30 08:00:00,57.7,57.1,29.82,SSW,202,3.0,10.0,98,0.00,,OVC,0.03,VWS V14.01,2013-01-30 13:00:00,
2013-01-30 09:00:00,58.1,57.8,29.82,SSW,202,3.0,13.0,99,0.00,,OVC,0.03,VWS V14.01,2013-01-30 14:00:00,
2013-01-30 10:00:00,58.4,58.1,29.77,SSW,209,1.0,13.0,99,0.01,,OVC,0.03,VWS V14.01,2013-01-30 15:00:00,
2013-01-30 10:44:00,58.4,58.1,29.77,SSW,211,2.0,4.0,99,0.01,,OVC,0.03,VWS V14.01,2013-01-30 15:44:00,
2013-01-30 10:49:00,58.4,58.1,29.77,West,275,0.0,13.0,99,0.01,,OVC,0.03,VWS V14.01,2013-01-30 15:49:00,
2013-01-30 10:54:00,58.4,58.1,29.77,SSE,163,0.0,13.0,99,0.01,,OVC,0.03,VWS V14.01,2013-01-30 15:54:00,
2013-01-30 10:59:00,58.4,58.1,29.77,SSW,209,2.0,13.0,99,0.01,,OVC,0.03,VWS V14.01,2013-01-30 15:59:00,
2013-01-30 11:00:00,58.5,58.2,29.73,West,259,4.0,15.0,99,0.00,,OVC,0.03,VWS V14.01,2013-01-30 16:00:00,
2013-01-30 11:04:00,58.4,58.1,29.76,WSW,243,0.0,6.0,99,0.00,,OVC,0.03,VWS V14.01,2013-01-30 16:04:00,
2013-01-30 11:09:00,58.4,58.1,29.76,South,184,0.0,8.0,99,0.00,,OVC,0.03,VWS V14.01,2013-01-30 16:09:00,
2013-01-30 11:15:00,58.4,58.1,29.76,SW,225,1.0,9.0,99,0.00,,OVC,0.03,VWS V14.01,2013-01-30 16:15:00,
2013-01-30 11:20:00,58.4,58.1,29.75,South,186,2.0,15.0,99,0.00,,OVC,0.03,VWS V14.01,2013-01-30 16:20:00,
2013-01-30 11:25:00,58.4,58.1,29.75,East,85,1.0,15.0,99,0.00,,OVC,0.03,VWS V14.01,2013-01-30 16:25:00,
2013-01-30 11:30:00,58.4,58.1,29.75,SSE,163,0.0,15.0,99,0.00,,OVC,0.03,VWS V14.01,2013-01-30 16:30:00,
2013-01-30 11:35:00,58.4,58.1,29.74,NNE,32,2.0,15.0,99,0.00,,OVC,0.03,VWS V14.01,2013-01-30 16:35:00,
2013-01-30 11:40:00,58.4,58.1,29.74,ESE,109,2.0,15.0,99,0.00,,OVC,0.03,VWS V14.01,2013-01-30 16:40:00,
2013-01-30 11:45:00,58.5,58.2,29.74,SSW,210,4.0,15.0,99,0.00,,OVC,0.03,VWS V14.01,2013-01-30 16:45:00,
2013-01-30 11:50:00,58.5,58.2,29.73,WNW,283,2.0,15.0,99,0.00,,OVC,0.03,VWS V14.01,2013-01-30 16:50:00,
2013-01-30 11:55:00,58.5,58.2,29.73,SSW,192,3.0,15.0,99,0.00,,OVC,0.03,VWS V14.01,2013-01-30 16:55:00,
2013-01-30 12:00:00,58.5,58.2,29.73,SSW,207,4.0,5.0,99,0.00,,OVC,0.03,VWS V14.01,2013-01-30 17:00:00,
2013-01-30 12:05:00,58.5,58.2,29.73,South,177,3.0,7.0,99,0.00,,OVC,0.03,VWS V14.01,2013-01-30 17:05:00,
2013-01-30 12:10:00,58.6,58.3,29.71,WNW,298,7.0,11.0,99,0.00,,OVC,0.03,VWS V14.01,2013-01-30 17:10:00,
2013-01-30 12:15:00,58.6,58.3,29.71,South,172,2.0,11.0,99,0.00,,OVC,0.03,VWS V14.01,2013-01-30 17:15:00,
2013-01-30 12:20:00,58.7,58.4,29.71,SSE,156,4.0,11.0,99,0.00,,OVC,0.03,VWS V14.01,2013-01-30 17:20:00,
2013-01-30 12:25:00,58.7,58.4,29.71,West,281,2.0,11.0,99,0.00,,OVC,0.03,VWS V14.01,2013-01-30 17:25:00,
2013-01-30 12:30:00,58.8,58.5,29.70,East,101,1.0,11.0,99,0.00,,OVC,0.03,VWS V14.01,2013-01-30 17:30:00,
2013-01-30 12:35:00,58.8,58.5,29.70,SSE,155,1.0,11.0,99,0.00,,OVC,0.03,VWS V14.01,2013-01-30 17:35:00,
2013-01-30 12:40:00,58.8,58.5,29.70,SSW,211,2.0,11.0,99,0.00,,OVC,0.03,VWS V14.01,2013-01-30 17:40:00,
2013-01-30 12:45:00,58.9,58.6,29.69,SSW,196,3.0,13.0,99,0.01,,OVC,0.04,VWS V14.01,2013-01-30 17:45:00,
2013-01-30 12:50:00,59.0,58.7,29.68,SSW,197,0.0,13.0,99,0.01,,OVC,0.04,VWS V14.01,2013-01-30 17:50:00,
2013-01-30 12:55:00,59.0,58.7,29.68,SSE,151,1.0,13.0,99,0.01,,OVC,0.04,VWS V14.01,2013-01-30 17:55:00,
2013-01-30 13:00:00,59.4,59.1,29.62,South,172,1.0,13.0,99,0.05,,OVC,0.08,VWS V14.01,2013-01-30 18:00:00,
2013-01-30 13:01:00,59.0,58.7,29.67,WSW,242,1.0,2.0,99,0.02,,OVC,0.05,VWS V14.01,2013-01-30 18:01:00,
2013-01-30 13:06:00,59.1,58.8,29.66,SSW,206,4.0,11.0,99,0.02,,OVC,0.05,VWS V14.01,2013-01-30 18:06:00,
2013-01-30 13:11:00,59.1,58.8,29.65,SSE,154,0.0,11.0,99,0.03,,OVC,0.06,VWS V14.01,2013-01-30 18:11:00,
2013-01-30 13:16:00,59.1,58.8,29.65,SSW,204,3.0,11.0,99,0.03,,OVC,0.06,VWS V14.01,2013-01-30 18:16:00,
2013-01-30 13:21:00,59.1,58.8,29.64,South,187,1.0,11.0,99,0.03,,OVC,0.06,VWS V14.01,2013-01-30 18:21:00,
2013-01-30 13:26:00,59.2,58.9,29.64,WNW,286,8.0,11.0,99,0.03,,OVC,0.06,VWS V14.01,2013-01-30 18:26:00,
2013-01-30 13:31:00,59.2,58.9,29.64,SW,225,0.0,11.0,99,0.03,,OVC,0.06,VWS V14.01,2013-01-30 18:31:00,
2013-01-30 13:36:00,59.3,59.0,29.63,South,186,3.0,11.0,99,0.03,,OVC,0.06,VWS V14.01,2013-01-30 18:36:00,
2013-01-30 13:41:00,59.3,59.0,29.63,SW,225,1.0,13.0,99,0.04,,OVC,0.07,VWS V14.01,2013-01-30 18:41:00,
2013-01-30 13:46:00,59.3,59.0,29.63,SSW,200,2.0,13.0,99,0.05,,OVC,0.08,VWS V14.01,2013-01-30 18:46:00,
2013-01-30 13:51:00,59.4,59.1,29.63,South,184,5.0,13.0,99,0.05,,OVC,0.08,VWS V14.01,2013-01-30 18:51:00,
2013-01-30 13:56:00,59.4,59.1,29.62,SW,227,3.0,13.0,99,0.05,,OVC,0.08,VWS V14.01,2013-01-30 18:56:00,
2013-01-30 14:00:00,59.6,59.3,29.57,WSW,257,2.0,12.0,99,0.05,,OVC,0.10,VWS V14.01,2013-01-30 19:00:00,
2013-01-30 14:01:00,59.4,59.1,29.62,South,182,3.0,4.0,99,0.03,,OVC,0.08,VWS V14.01,2013-01-30 19:01:00,
2013-01-30 14:06:00,59.4,59.1,29.61,SSW,202,2.0,4.0,99,0.04,,OVC,0.09,VWS V14.01,2013-01-30 19:06:00,
2013-01-30 14:11:00,59.4,59.1,29.61,NNW,346,0.0,7.0,99,0.04,,OVC,0.09,VWS V14.01,2013-01-30 19:11:00,
2013-01-30 14:16:00,59.4,59.1,29.61,SW,227,4.0,8.0,99,0.04,,OVC,0.09,VWS V14.01,2013-01-30 19:16:00,
2013-01-30 14:21:00,59.4,59.1,29.60,SE,139,0.0,9.0,99,0.05,,OVC,0.10,VWS V14.01,2013-01-30 19:21:00,
2013-01-30 14:26:00,59.4,59.1,29.60,SSW,204,1.0,9.0,99,0.05,,OVC,0.10,VWS V14.01,2013-01-30 19:26:00,
2013-01-30 14:31:00,59.5,59.2,29.59,WSW,246,2.0,9.0,99,0.05,,OVC,0.10,VWS V14.01,2013-01-30 19:31:00,
2013-01-30 14:37:00,59.4,59.1,29.59,NW,319,3.0,9.0,99,0.05,,OVC,0.10,VWS V14.01,2013-01-30 19:37:00,
2013-01-30 14:42:00,59.5,59.2,29.59,WSW,240,2.0,12.0,99,0.05,,OVC,0.10,VWS V14.01,2013-01-30 19:42:00,
2013-01-30 14:47:00,59.5,59.2,29.59,WSW,250,2.0,12.0,99,0.05,,OVC,0.10,VWS V14.01,2013-01-30 19:47:00,
2013-01-30 14:52:00,59.5,59.2,29.58,SSW,198,5.0,12.0,99,0.05,,OVC,0.10,VWS V14.01,2013-01-30 19:52:00,
2013-01-30 14:57:00,59.6,59.3,29.57,SSW,205,3.0,12.0,99,0.05,,OVC,0.10,VWS V14.01,2013-01-30 19:57:00,
2013-01-30 15:00:00,59.9,59.6,29.54,WNW,297,3.0,15.0,99,0.15,,OVC,0.23,VWS V14.01,2013-01-30 20:00:00,
2013-01-30 15:02:00,59.6,59.3,29.57,NW,315,0.0,3.0,99,0.02,,OVC,0.10,VWS V14.01,2013-01-30 20:02:00,
2013-01-30 15:07:00,59.6,59.3,29.56,SSW,211,2.0,8.0,99,0.02,,OVC,0.10,VWS V14.01,2013-01-30 20:07:00,
2013-01-30 15:12:00,59.6,59.3,29.55,SSE,167,5.0,8.0,99,0.02,,OVC,0.10,VWS V14.01,2013-01-30 20:12:00,
2013-01-30 15:17:00,59.6,59.3,29.55,SSW,198,4.0,10.0,99,0.02,,OVC,0.10,VWS V14.01,2013-01-30 20:17:00,
2013-01-30 15:22:00,59.6,59.3,29.55,SE,138,2.0,10.0,99,0.02,,OVC,0.10,VWS V14.01,2013-01-30 20:22:00,
2013-01-30 15:27:00,59.6,59.3,29.55,NW,311,7.0,10.0,99,0.02,,OVC,0.10,VWS V14.01,2013-01-30 20:27:00,
2013-01-30 15:32:00,59.6,59.3,29.54,SSW,207,0.0,10.0,99,0.02,,OVC,0.10,VWS V14.01,2013-01-30 20:32:00,
2013-01-30 15:37:00,59.7,59.4,29.53,NNW,333,1.0,12.0,99,0.04,,OVC,0.12,VWS V14.01,2013-01-30 20:37:00,
2013-01-30 15:42:00,59.8,59.5,29.53,West,259,5.0,15.0,99,0.07,,OVC,0.15,VWS V14.01,2013-01-30 20:42:00,
2013-01-30 15:47:00,59.9,59.6,29.53,WSW,240,1.0,15.0,99,0.08,,OVC,0.16,VWS V14.01,2013-01-30 20:47:00,
2013-01-30 15:52:00,59.9,59.6,29.53,WSW,238,2.0,15.0,99,0.12,,OVC,0.20,VWS V14.01,2013-01-30 20:52:00,
2013-01-30 15:57:00,59.9,59.6,29.53,SSW,211,5.0,15.0,99,0.13,,OVC,0.21,VWS V14.01,2013-01-30 20:57:00,
2013-01-30 16:00:00,60.4,60.1,29.42,NW,326,2.0,17.0,99,0.39,,OVC,0.49,VWS V14.01,2013-01-30 21:00:00,
2013-01-30 16:02:00,59.9,59.6,29.52,South,177,5.0,7.0,99,0.14,,OVC,0.24,VWS V14.01,2013-01-30 21:02:00,
2013-01-30 16:07:00,59.9,59.6,29.51,NW,310,7.0,7.0,99,0.17,,OVC,0.27,VWS V14.01,2013-01-30 21:07:00,
2013-01-30 16:12:00,60.0,59.7,29.50,WNW,286,3.0,8.0,99,0.20,,OVC,0.30,VWS V14.01,2013-01-30 21:12:00,
2013-01-30 16:17:00,60.0,59.7,29.49,SW,231,1.0,8.0,99,0.23,,OVC,0.33,VWS V14.01,2013-01-30 21:17:00,
2013-01-30 16:22:00,60.0,59.7,29.50,West,261,4.0,17.0,99,0.25,,OVC,0.35,VWS V14.01,2013-01-30 21:22:00,
2013-01-30 16:27:00,60.1,59.8,29.50,South,180,2.0,17.0,99,0.27,,OVC,0.37,VWS V14.01,2013-01-30 21:27:00,
2013-01-30 16:32:00,60.2,59.9,29.50,WNW,300,3.0,17.0,99,0.28,,OVC,0.38,VWS V14.01,2013-01-30 21:32:00,
2013-01-30 16:37:00,60.4,60.1,29.49,SSW,202,1.0,17.0,99,0.30,,OVC,0.40,VWS V14.01,2013-01-30 21:37:00,
2013-01-30 16:42:00,60.4,60.1,29.48,WSW,238,7.0,17.0,99,0.32,,OVC,0.42,VWS V14.01,2013-01-30 21:42:00,
2013-01-30 16:47:00,60.4,60.1,29.47,NW,314,0.0,17.0,99,0.35,,OVC,0.45,VWS V14.01,2013-01-30 21:47:00,
2013-01-30 16:53:00,60.4,60.1,29.45,WSW,244,5.0,17.0,99,0.36,,OVC,0.46,VWS V14.01,2013-01-30 21:53:00,
2013-01-30 16:58:00,60.4,60.1,29.43,NW,308,2.0,17.0,99,0.38,,OVC,0.48,VWS V14.01,2013-01-30 21:58:00,
2013-01-30 17:00:00,56.9,56.6,29.48,SW,215,3.0,21.0,99,1.15,,OVC,1.38,VWS V14.01,2013-01-30 22:00:00,
2013-01-30 17:03:00,60.4,60.1,29.42,SSW,197,7.0,12.0,99,0.27,,OVC,0.50,VWS V14.01,2013-01-30 22:03:00,
2013-01-30 17:08:00,59.3,59.0,29.49,ESE,102,5.0,21.0,99,0.58,,OVC,0.81,VWS V14.01,2013-01-30 22:08:00,
2013-01-30 17:13:00,58.2,57.9,29.51,ENE,66,2.0,21.0,99,0.75,,OVC,0.98,VWS V14.01,2013-01-30 22:13:00,
2013-01-30 17:18:00,57.9,57.6,29.50,WSW,237,1.0,21.0,99,0.99,,OVC,1.22,VWS V14.01,2013-01-30 22:18:00,
2013-01-30 17:23:00,57.6,57.3,29.49,WSW,238,5.0,21.0,99,1.02,,OVC,1.25,VWS V14.01,2013-01-30 22:23:00,
2013-01-30 17:28:00,57.5,57.2,29.49,ENE,65,2.0,21.0,99,1.05,,OVC,1.28,VWS V14.01,2013-01-30 22:28:00,
2013-01-30 17:33:00,57.3,57.0,29.47,SSW,194,3.0,21.0,99,1.07,,OVC,1.30,VWS V14.01,2013-01-30 22:33:00,
2013-01-30 17:38:00,57.2,56.9,29.49,ESE,113,0.0,21.0,99,1.08,,OVC,1.31,VWS V14.01,2013-01-30 22:38:00,
2013-01-30 17:43:00,57.1,56.8,29.47,WSW,255,3.0,21.0,99,1.09,,OVC,1.32,VWS V14.01,2013-01-30 22:43:00,
2013-01-30 17:48:00,57.1,56.8,29.47,WSW,242,6.0,21.0,99,1.11,,OVC,1.34,VWS V14.01,2013-01-30 22:48:00,
2013-01-30 17:53:00,57.0,56.7,29.47,East,90,2.0,21.0,99,1.13,,OVC,1.36,VWS V14.01,2013-01-30 22:53:00,
2013-01-30 17:58:00,56.9,56.6,29.47,SSE,152,1.0,21.0,99,1.14,,OVC,1.37,VWS V14.01,2013-01-30 22:58:00,
2013-01-30 18:00:00,55.9,55.6,29.46,East,80,1.0,10.0,99,1.10,,OVC,1.59,VWS V14.01,2013-01-30 23:00:00,
2013-01-30 18:03:00,56.8,56.5,29.47,SSE,165,3.0,10.0,99,0.91,,OVC,1.40,VWS V14.01,2013-01-30 23:03:00,
2013-01-30 18:08:00,56.7,56.4,29.47,WSW,247,0.0,10.0,99,0.95,,OVC,1.44,VWS V14.01,2013-01-30 23:08:00,
2013-01-30 18:13:00,56.6,56.3,29.47,East,90,0.0,10.0,99,0.99,,OVC,1.48,VWS V14.01,2013-01-30 23:13:00,
2013-01-30 18:18:00,56.6,56.3,29.47,WSW,241,0.0,10.0,99,1.01,,OVC,1.50,VWS V14.01,2013-01-30 23:18:00,
2013-01-30 18:23:00,56.6,56.3,29.46,North,353,3.0,10.0,99,1.03,,OVC,1.52,VWS V14.01,2013-01-30 23:23:00,
2013-01-30 18:28:00,56.6,56.3,29.47,ESE,121,1.0,10.0,99,1.04,,OVC,1.53,VWS V14.01,2013-01-30 23:28:00,
2013-01-30 18:33:00,56.4,56.1,29.47,NE,34,3.0,10.0,99,1.07,,OVC,1.56,VWS V14.01,2013-01-30 23:33:00,
2013-01-30 18:38:00,56.2,55.9,29.46,SSW,205,0.0,10.0,99,1.09,,OVC,1.58,VWS V14.01,2013-01-30 23:38:00,
2013-01-30 18:43:00,56.1,55.8,29.47,NNE,29,1.0,10.0,99,1.10,,OVC,1.59,VWS V14.01,2013-01-30 23:43:00,
2013-01-30 18:48:00,56.0,55.7,29.47,SSW,208,4.0,10.0,99,1.10,,OVC,1.59,VWS V14.01,2013-01-30 23:48:00,
2013-01-30 18:53:00,55.9,55.6,29.46,SSW,199,0.0,10.0,99,1.10,,OVC,1.59,VWS V14.01,2013-01-30 23:53:00,
2013-01-30 18:58:00,55.9,55.6,29.46,ESE,102,0.0,10.0,99,1.10,,OVC,1.59,VWS V14.01,2013-01-30 23:58:00,
2013-01-30 19:00:00,55.3,55.0,29.48,NE,38,2.0,11.0,99,0.26,,OVC,1.64,VWS V14.01,2013-01-31 00:00:00,
2013-01-30 19:03:00,55.8,55.5,29.46,SW,227,2.0,3.0,99,0.22,,OVC,1.60,VWS V14.01,2013-01-31 00:03:00,
2013-01-30 19:08:00,55.8,55.5,29.45,NE,35,1.0,4.0,99,0.22,,OVC,1.60,VWS V14.01,2013-01-31 00:08:00,
2013-01-30 19:13:00,55.7,55.4,29.46,East,100,0.0,4.0,99,0.23,,OVC,1.61,VWS V14.01,2013-01-31 00:13:00,
2013-01-30 19:18:00,55.7,55.4,29.47,SSW,211,2.0,4.0,99,0.24,,OVC,1.62,VWS V14.01,2013-01-31 00:18:00,
2013-01-30 19:23:00,55.6,55.3,29.46,WSW,252,2.0,4.0,99,0.25,,OVC,1.63,VWS V14.01,2013-01-31 00:23:00,
2013-01-30 19:28:00,55.6,55.3,29.46,South,172,1.0,7.0,99,0.26,,OVC,1.64,VWS V14.01,2013-01-31 00:28:00,
2013-01-30 19:34:00,55.5,55.2,29.46,WSW,238,0.0,7.0,99,0.26,,OVC,1.64,VWS V14.01,2013-01-31 00:34:00,
2013-01-30 19:39:00,55.5,55.2,29.46,WSW,238,0.0,7.0,99,0.26,,OVC,1.64,VWS V14.01,2013-01-31 00:39:00,
2013-01-30 19:44:00,55.4,55.1,29.46,SSW,198,2.0,7.0,99,0.26,,OVC,1.64,VWS V14.01,2013-01-31 00:44:00,
2013-01-30 19:49:00,55.4,55.1,29.46,ENE,69,3.0,7.0,99,0.26,,OVC,1.64,VWS V14.01,2013-01-31 00:49:00,
2013-01-30 19:54:00,55.4,55.1,29.47,WSW,250,0.0,11.0,99,0.26,,OVC,1.64,VWS V14.01,2013-01-31 00:54:00,
2013-01-30 19:59:00,55.3,55.0,29.48,NNW,329,3.0,11.0,99,0.26,,OVC,1.64,VWS V14.01,2013-01-31 00:59:00,
2013-01-30 20:00:00,47.7,47.2,29.49,ENE,61,1.0,11.0,98,0.16,,OVC,1.75,VWS V14.01,2013-01-31 01:00:00,
2013-01-30 20:04:00,55.1,54.8,29.47,ENE,60,2.0,7.0,99,0.06,,OVC,1.65,VWS V14.01,2013-01-31 01:04:00,
2013-01-30 20:09:00,55.0,54.7,29.48,SSW,212,3.0,8.0,99,0.07,,OVC,1.66,VWS V14.01,2013-01-31 01:09:00,
2013-01-30 20:14:00,54.6,54.3,29.47,SSW,206,5.0,8.0,99,0.09,,OVC,1.68,VWS V14.01,2013-01-31 01:14:00,
2013-01-30 20:19:00,53.2,52.9,29.48,NE,52,0.0,8.0,99,0.09,,OVC,1.68,VWS V14.01,2013-01-31 01:19:00,
2013-01-30 20:24:00,52.1,51.8,29.49,NE,46,5.0,9.0,99,0.09,,OVC,1.68,VWS V14.01,2013-01-31 01:24:00,
2013-01-30 20:29:00,51.3,51.0,29.50,NE,46,2.0,9.0,99,0.10,,OVC,1.69,VWS V14.01,2013-01-31 01:29:00,
2013-01-30 20:34:00,50.4,49.9,29.48,East,80,3.0,9.0,98,0.11,,OVC,1.70,VWS V14.01,2013-01-31 01:34:00,
2013-01-30 20:39:00,49.6,49.1,29.51,East,85,5.0,9.0,98,0.12,,OVC,1.71,VWS V14.01,2013-01-31 01:39:00,
2013-01-30 20:44:00,49.1,48.6,29.51,East,85,5.0,10.0,98,0.13,,OVC,1.72,VWS V14.01,2013-01-31 01:44:00,
2013-01-30 20:49:00,48.5,48.0,29.51,NE,49,3.0,10.0,98,0.14,,OVC,1.73,VWS V14.01,2013-01-31 01:49:00,
2013-01-30 20:54:00,48.1,47.6,29.49,ENE,71,3.0,10.0,98,0.15,,OVC,1.74,VWS V14.01,2013-01-31 01:54:00,
2013-01-30 20:59:00,47.6,47.1,29.49,ENE,61,1.0,11.0,98,0.16,,OVC,1.75,VWS V14.01,2013-01-31 01:59:00,
2013-01-30 21:00:00,46.1,45.6,29.51,SW,227,0.0,11.0,98,0.14,,OVC,1.78,VWS V14.01,2013-01-31 02:00:00,
2013-01-30 21:04:00,47.4,46.9,29.47,ENE,71,2.0,9.0,98,0.11,,OVC,1.75,VWS V14.01,2013-01-31 02:04:00,
2013-01-30 21:09:00,46.9,46.4,29.49,East,95,2.0,11.0,98,0.11,,OVC,1.75,VWS V14.01,2013-01-31 02:09:00,
2013-01-30 21:14:00,46.5,46.0,29.48,NE,37,3.0,11.0,98,0.11,,OVC,1.75,VWS V14.01,2013-01-31 02:14:00,
2013-01-30 21:19:00,46.3,45.8,29.48,SW,219,1.0,11.0,98,0.11,,OVC,1.75,VWS V14.01,2013-01-31 02:19:00,
2013-01-30 21:24:00,46.0,45.5,29.49,South,172,1.0,11.0,98,0.11,,OVC,1.75,VWS V14.01,2013-01-31 02:24:00,
2013-01-30 21:29:00,45.9,45.4,29.48,East,90,0.0,11.0,98,0.11,,OVC,1.75,VWS V14.01,2013-01-31 02:29:00,
2013-01-30 21:34:00,45.8,45.3,29.50,SSE,149,0.0,11.0,98,0.11,,OVC,1.75,VWS V14.01,2013-01-31 02:34:00,
2013-01-30 21:39:00,45.7,45.2,29.50,SSE,149,0.0,11.0,98,0.12,,OVC,1.76,VWS V14.01,2013-01-31 02:39:00,
2013-01-30 21:44:00,45.8,45.3,29.49,SSE,150,0.0,11.0,98,0.12,,OVC,1.76,VWS V14.01,2013-01-31 02:44:00,
2013-01-30 21:49:00,46.1,45.6,29.50,SW,235,1.0,11.0,98,0.13,,OVC,1.77,VWS V14.01,2013-01-31 02:49:00,
2013-01-30 21:54:00,46.4,45.9,29.51,SW,222,1.0,11.0,98,0.14,,OVC,1.78,VWS V14.01,2013-01-31 02:54:00,
2013-01-30 21:59:00,46.2,45.7,29.51,WSW,244,2.0,11.0,98,0.14,,OVC,1.78,VWS V14.01,2013-01-31 02:59:00,
2013-01-30 22:00:00,44.5,44.0,29.51,SSE,156,1.0,11.0,98,0.05,,OVC,1.80,VWS V14.01,2013-01-31 03:00:00,
2013-01-30 22:04:00,45.7,45.2,29.50,SW,233,1.0,6.0,98,0.03,,OVC,1.78,VWS V14.01,2013-01-31 03:04:00,
2013-01-30 22:09:00,45.4,44.9,29.50,NNE,14,2.0,8.0,98,0.03,,OVC,1.78,VWS V14.01,2013-01-31 03:09:00,
2013-01-30 22:15:00,45.1,44.6,29.49,SE,132,4.0,11.0,98,0.03,,OVC,1.78,VWS V14.01,2013-01-31 03:15:00,
2013-01-30 22:20:00,45.0,44.5,29.48,SW,224,2.0,11.0,98,0.03,,OVC,1.78,VWS V14.01,2013-01-31 03:20:00,
2013-01-30 22:25:00,44.9,44.4,29.50,ESE,107,3.0,11.0,98,0.04,,OVC,1.79,VWS V14.01,2013-01-31 03:25:00,
2013-01-30 22:30:00,44.9,44.4,29.51,WSW,244,1.0,11.0,98,0.04,,OVC,1.79,VWS V14.01,2013-01-31 03:30:00,
2013-01-30 22:35:00,44.8,44.3,29.50,NW,304,0.0,11.0,98,0.04,,OVC,1.79,VWS V14.01,2013-01-31 03:35:00,
2013-01-30 22:40:00,44.8,44.3,29.50,SSW,198,3.0,11.0,98,0.04,,OVC,1.79,VWS V14.01,2013-01-31 03:40:00,
2013-01-30 22:45:00,44.7,44.2,29.52,SSW,201,1.0,11.0,98,0.05,,OVC,1.80,VWS V14.01,2013-01-31 03:45:00,
2013-01-30 22:50:00,44.7,44.2,29.51,SW,229,3.0,11.0,98,0.05,,OVC,1.80,VWS V14.01,2013-01-31 03:50:00,
2013-01-30 22:55:00,44.6,44.1,29.51,NW,317,1.0,11.0,98,0.05,,OVC,1.80,VWS V14.01,2013-01-31 03:55:00,
2013-01-30 23:00:00,44.4,43.9,29.51,SE,144,2.0,2.0,98,0.02,,OVC,1.80,VWS V14.01,2013-01-31 04:00:00,
2013-01-30 23:05:00,44.2,43.7,29.52,South,179,1.0,9.0,98,0.02,,OVC,1.80,VWS V14.01,2013-01-31 04:05:00,
2013-01-30 23:10:00,44.1,43.6,29.51,ENE,73,1.0,9.0,98,0.02,,OVC,1.80,VWS V14.01,2013-01-31 04:10:00,
2013-01-30 23:15:00,43.8,43.3,29.51,ENE,64,0.0,9.0,98,0.02,,OVC,1.80,VWS V14.01,2013-01-31 04:15:00,
2013-01-30 23:20:00,43.4,42.9,29.50,WNW,294,0.0,9.0,98,0.02,,OVC,1.80,VWS V14.01,2013-01-31 04:20:00,
2013-01-30 23:25:00,43.1,42.6,29.52,SSW,211,1.0,9.0,98,0.02,,OVC,1.80,VWS V14.01,2013-01-31 04:25:00,
2013-01-30 23:30:00,42.7,42.2,29.51,East,80,1.0,9.0,98,0.02,,OVC,1.80,VWS V14.01,2013-01-31 04:30:00,
2013-01-30 23:35:00,42.5,42.0,29.52,SSE,160,1.0,13.0,98,0.02,,OVC,1.80,VWS V14.01,2013-01-31 04:35:00,
2013-01-30 23:40:00,42.3,41.8,29.51,NE,52,0.0,13.0,98,0.02,,OVC,1.80,VWS V14.01,2013-01-31 04:40:00,
2013-01-30 23:45:00,42.0,41.5,29.51,North,5,1.0,13.0,98,0.02,,OVC,1.80,VWS V14.01,2013-01-31 04:45:00,
2013-01-30 23:50:00,41.9,41.4,29.53,South,190,5.0,13.0,98,0.02,,OVC,1.80,VWS V14.01,2013-01-31 04:50:00,
2013-01-30 23:55:00,41.7,41.2,29.53,ENE,75,2.0,13.0,98,0.02,,OVC,1.80,VWS V14.01,2013-01-31 04:55:00,